Time;durP1;ratioP1;P1;durP2;ratioP2;P2;SDS_P1;SDS_P2;PMS_P1;PMS_P2;Temp;Humidity;BMP_temperature;BMP_pressure;BME280_temperature;BME280_humidity;BME280_pressure;Samples;Min_cycle;Max_cycle;Signal;HPM_P1;HPM_P2
2023/12/04 00:00:19;;;;;;;10.27;4.40;;;;;;;-2.06;100.00;100774.91;5037310;28;20212;-74
2023/12/04 00:02:46;;;;;;;11.33;4.17;;;;;;;-2.12;100.00;100765.81;5031862;28;20227;-74
2023/12/04 00:05:12;;;;;;;9.30;4.10;;;;;;;-2.15;100.00;100758.72;5034043;28;20277;-73
2023/12/04 00:07:38;;;;;;;4.37;3.17;;;;;;;-2.24;100.00;100756.41;5030284;28;20223;-73
2023/12/04 00:10:05;;;;;;;8.90;4.50;;;;;;;-2.32;100.00;100757.56;5012919;28;20207;-73
2023/12/04 00:12:32;;;;;;;7.07;3.77;;;;;;;-2.48;100.00;100756.34;5014098;28;20282;-73
2023/12/04 00:14:59;;;;;;;20.70;9.73;;;;;;;-2.66;100.00;100749.09;5029837;28;20219;-73
2023/12/04 00:17:25;;;;;;;11.10;4.10;;;;;;;-2.72;100.00;100750.34;5033152;28;20202;-74
2023/12/04 00:19:52;;;;;;;11.73;4.50;;;;;;;-2.77;100.00;100755.22;5032442;28;20191;-73
2023/12/04 00:22:19;;;;;;;13.70;4.47;;;;;;;-2.84;100.00;100753.84;5015425;28;20212;-72
2023/12/04 00:24:45;;;;;;;12.70;4.43;;;;;;;-2.93;100.00;100748.00;5027784;28;20591;-73
2023/12/04 00:27:12;;;;;;;10.23;3.97;;;;;;;-2.96;100.00;100739.13;5010445;28;20199;-74
2023/12/04 00:29:38;;;;;;;12.13;3.97;;;;;;;-3.03;100.00;100740.38;5026657;28;20676;-74
2023/12/04 00:32:05;;;;;;;16.30;4.63;;;;;;;-2.99;100.00;100732.03;5029252;28;20192;-73
2023/12/04 00:34:31;;;;;;;11.63;4.37;;;;;;;-3.11;100.00;100720.78;5063314;23;20625;-72
2023/12/04 00:36:58;;;;;;;10.40;3.87;;;;;;;-3.14;100.00;100715.38;5046090;28;20623;-72
2023/12/04 00:39:25;;;;;;;10.20;4.30;;;;;;;-3.25;100.00;100722.34;5045549;28;20610;-74
2023/12/04 00:41:51;;;;;;;8.40;3.90;;;;;;;-3.38;100.00;100718.75;5049379;28;20199;-72
2023/12/04 00:44:17;;;;;;;8.00;3.70;;;;;;;-3.46;100.00;100705.25;5049107;28;20226;-72
2023/12/04 00:46:44;;;;;;;13.30;4.53;;;;;;;-3.47;100.00;100704.34;5051870;28;20667;-72
2023/12/04 00:49:10;;;;;;;10.10;3.33;;;;;;;-3.42;100.00;100707.28;5045458;28;20260;-74
2023/12/04 00:51:38;;;;;;;20.07;10.10;;;;;;;-3.47;100.00;100699.19;5049947;28;20712;-72
2023/12/04 00:54:05;;;;;;;21.03;10.27;;;;;;;-3.44;100.00;100695.91;5032897;28;20223;-72
2023/12/04 00:56:31;;;;;;;22.97;9.77;;;;;;;-3.32;100.00;100699.38;5046170;28;20199;-73
2023/12/04 00:58:57;;;;;;;24.17;11.00;;;;;;;-3.29;100.00;100698.72;5042113;28;20217;-72
2023/12/04 01:01:24;;;;;;;5.53;2.80;;;;;;;-3.23;100.00;100689.69;5048705;28;20202;-73
2023/12/04 01:03:50;;;;;;;21.10;10.57;;;;;;;-3.32;100.00;100688.13;5030747;28;20215;-72
2023/12/04 01:06:23;;;;;;;21.77;9.77;;;;;;;-3.42;100.00;100683.97;5048041;28;20671;-73
2023/12/04 01:08:51;;;;;;;7.60;3.80;;;;;;;-3.45;100.00;100690.63;5028515;28;20644;-72
2023/12/04 01:11:19;;;;;;;9.43;3.87;;;;;;;-3.52;100.00;100690.19;5046474;28;20205;-72
2023/12/04 01:13:45;;;;;;;22.07;9.50;;;;;;;-3.54;100.00;100688.28;5048873;28;20195;-72
2023/12/04 01:16:12;;;;;;;9.57;3.63;;;;;;;-3.53;100.00;100677.13;5019757;28;20253;-72
2023/12/04 01:18:42;;;;;;;9.17;4.40;;;;;;;-3.45;100.00;100675.09;5048926;28;20230;-72
2023/12/04 01:21:09;;;;;;;9.57;3.50;;;;;;;-3.44;100.00;100671.72;5048698;28;20563;-72
2023/12/04 01:23:36;;;;;;;8.57;3.87;;;;;;;-3.43;100.00;100665.75;5043974;28;20219;-71
2023/12/04 01:26:03;;;;;;;5.60;3.27;;;;;;;-3.49;100.00;100668.78;5045096;28;20292;-71
2023/12/04 01:28:30;;;;;;;7.13;3.27;;;;;;;-3.54;100.00;100672.75;5048212;28;20199;-72
2023/12/04 01:30:57;;;;;;;8.47;3.47;;;;;;;-3.65;100.00;100668.44;5048013;28;20206;-70
2023/12/04 01:33:23;;;;;;;22.80;10.03;;;;;;;-3.70;100.00;100675.88;5045851;28;20859;-74
2023/12/04 01:35:50;;;;;;;6.80;3.30;;;;;;;-3.69;100.00;100667.31;5048158;28;20229;-71
2023/12/04 01:38:17;;;;;;;8.77;3.87;;;;;;;-3.67;100.00;100672.59;5052213;28;20207;-71
2023/12/04 01:40:43;;;;;;;5.33;3.37;;;;;;;-3.76;100.00;100680.59;5047045;28;20218;-71
2023/12/04 01:43:09;;;;;;;7.80;3.77;;;;;;;-3.83;100.00;100678.34;5030830;28;20490;-72
2023/12/04 01:45:36;;;;;;;6.73;3.70;;;;;;;-3.89;100.00;100675.31;5053115;28;20219;-72
2023/12/04 01:48:03;;;;;;;8.23;3.90;;;;;;;-3.93;100.00;100679.34;5048360;28;20203;-71
2023/12/04 01:50:30;;;;;;;7.23;3.40;;;;;;;-3.89;100.00;100678.78;5034425;28;20716;-72
2023/12/04 01:52:57;;;;;;;8.23;3.30;;;;;;;-3.76;100.00;100667.66;5052257;28;20242;-72
2023/12/04 01:55:23;;;;;;;12.23;3.93;;;;;;;-3.79;100.00;100665.75;5035560;28;20237;-72
2023/12/04 01:57:49;;;;;;;14.07;5.57;;;;;;;-3.80;100.00;100673.38;5050784;28;20449;-70
2023/12/04 02:00:18;;;;;;;9.43;3.63;;;;;;;-3.91;100.00;100664.84;5052468;28;20207;-72
2023/12/04 02:02:46;;;;;;;11.80;3.50;;;;;;;-3.97;100.00;100656.63;5059513;28;20289;-72
2023/12/04 02:05:14;;;;;;;10.33;3.60;;;;;;;-3.97;100.00;100666.97;5039921;28;20487;-73
2023/12/04 02:07:41;;;;;;;8.77;3.90;;;;;;;-4.03;100.00;100663.91;5033221;28;20605;-71
2023/12/04 02:10:08;;;;;;;12.07;4.17;;;;;;;-4.12;100.00;100655.47;5052049;28;20290;-71
2023/12/04 02:12:35;;;;;;;11.07;3.53;;;;;;;-4.17;100.00;100651.63;5053592;28;20199;-71
2023/12/04 02:15:02;;;;;;;7.87;3.23;;;;;;;-4.18;100.00;100658.50;5056094;28;20393;-72
2023/12/04 02:17:29;;;;;;;21.63;9.80;;;;;;;-4.09;100.00;100642.75;5040403;28;20934;-72
2023/12/04 02:19:57;;;;;;;22.77;9.83;;;;;;;-4.03;100.00;100650.97;5046446;28;20213;-71
2023/12/04 02:22:23;;;;;;;8.63;3.73;;;;;;;-3.97;100.00;100647.97;5026238;28;20556;-71
2023/12/04 02:24:49;;;;;;;21.27;10.70;;;;;;;-3.75;100.00;100634.91;5048568;28;20473;-71
2023/12/04 02:27:23;;;;;;;10.90;4.17;;;;;;;-3.72;100.00;100640.31;5047670;28;20239;-72
2023/12/04 02:29:58;;;;;;;6.60;4.00;;;;;;;-3.66;100.00;100638.19;5043301;28;20989;-71
2023/12/04 02:32:29;;;;;;;7.80;3.60;;;;;;;-3.78;100.00;100628.72;5028459;28;20463;-72
2023/12/04 02:34:59;;;;;;;21.87;10.23;;;;;;;-3.63;100.00;100625.47;5047462;28;20254;-71
2023/12/04 02:37:26;;;;;;;20.43;9.93;;;;;;;-3.62;100.00;100620.41;5047236;28;20832;-71
2023/12/04 02:39:55;;;;;;;20.57;9.70;;;;;;;-3.56;100.00;100609.63;5030721;28;20489;-73
2023/12/04 02:42:24;;;;;;;8.97;3.83;;;;;;;-3.60;100.00;100608.50;5051205;28;20461;-71
2023/12/04 02:44:51;;;;;;;6.40;3.43;;;;;;;-3.60;100.00;100602.38;5047614;28;20983;-71
2023/12/04 02:47:18;;;;;;;8.83;3.13;;;;;;;-3.70;100.00;100606.00;5050982;28;20969;-71
2023/12/04 02:49:44;;;;;;;21.40;10.37;;;;;;;-3.66;100.00;100599.34;5031252;28;20241;-71
2023/12/04 02:52:11;;;;;;;5.13;3.33;;;;;;;-3.58;100.00;100580.13;5030891;28;20201;-73
2023/12/04 02:54:37;;;;;;;7.33;2.20;;;;;;;-3.51;100.00;100587.53;5050417;28;20226;-72
2023/12/04 02:57:06;;;;;;;8.50;3.97;;;;;;;-3.52;100.00;100583.16;5033257;28;20835;-71
2023/12/04 02:59:32;;;;;;;18.73;9.57;;;;;;;-3.55;100.00;100572.59;5052708;28;20456;-71
2023/12/04 03:01:59;;;;;;;20.40;9.77;;;;;;;-3.57;100.00;100575.06;5048937;28;20205;-71
2023/12/04 03:04:27;;;;;;;8.80;3.27;;;;;;;-3.59;100.00;100574.06;5048839;28;20559;-73
2023/12/04 03:06:54;;;;;;;6.73;3.37;;;;;;;-3.64;100.00;100567.63;5048511;28;20453;-71
2023/12/04 03:09:20;;;;;;;5.73;3.60;;;;;;;-3.64;100.00;100564.13;5046452;28;20195;-71
2023/12/04 03:12:07;;;;;;;4.23;2.87;;;;;;;-3.72;100.00;100561.00;5028148;28;20453;-71
2023/12/04 03:14:33;;;;;;;7.23;3.20;;;;;;;-3.74;100.00;100552.22;5055808;28;20218;-71
2023/12/04 03:17:00;;;;;;;5.33;2.87;;;;;;;-3.82;100.00;100550.78;5053798;28;20948;-71
2023/12/04 03:19:26;;;;;;;8.07;4.63;;;;;;;-3.93;100.00;100550.03;5048911;28;20749;-71
2023/12/04 03:21:53;;;;;;;8.73;3.87;;;;;;;-3.99;100.00;100549.56;5049505;28;20458;-70
2023/12/04 03:24:19;;;;;;;5.43;3.07;;;;;;;-3.88;100.00;100555.53;5049208;28;20226;-70
2023/12/04 03:26:46;;;;;;;8.23;3.87;;;;;;;-3.96;100.00;100542.03;5057597;28;20537;-71
2023/12/04 03:29:12;;;;;;;4.67;3.13;;;;;;;-3.90;100.00;100547.66;5031575;28;20985;-70
2023/12/04 03:31:38;;;;;;;7.50;3.63;;;;;;;-3.94;100.00;100543.03;5026835;28;20207;-69
2023/12/04 03:34:05;;;;;;;21.20;10.50;;;;;;;-3.98;100.00;100546.19;5048912;28;20710;-70
2023/12/04 03:36:31;;;;;;;21.63;10.20;;;;;;;-4.10;100.00;100535.84;5043886;28;20542;-72
2023/12/04 03:38:58;;;;;;;21.60;9.97;;;;;;;-4.09;100.00;100531.56;5046732;28;20203;-71
2023/12/04 03:41:24;;;;;;;21.93;9.63;;;;;;;-4.10;100.00;100529.75;5037373;28;20567;-70
2023/12/04 03:43:50;;;;;;;20.60;10.10;;;;;;;-4.06;100.00;100536.06;5050844;28;20309;-70
2023/12/04 03:46:17;;;;;;;9.03;3.60;;;;;;;-4.01;100.00;100522.66;5048989;28;20217;-70
2023/12/04 03:48:45;;;;;;;9.57;3.47;;;;;;;-4.02;100.00;100515.69;5053695;28;20960;-70
2023/12/04 03:51:11;;;;;;;8.17;3.73;;;;;;;-3.95;100.00;100520.56;5051124;28;20967;-70
2023/12/04 03:53:38;;;;;;;5.03;3.60;;;;;;;-3.97;100.00;100516.06;5060327;28;20641;-71
2023/12/04 03:56:05;;;;;;;11.33;3.30;;;;;;;-3.95;100.00;100517.06;5048415;28;21038;-70
2023/12/04 03:58:32;;;;;;;8.07;3.67;;;;;;;-4.00;100.00;100519.31;5046409;28;20547;-70
2023/12/04 04:00:58;;;;;;;4.30;3.10;;;;;;;-4.00;100.00;100529.69;5031263;28;20581;-70
2023/12/04 04:03:24;;;;;;;8.30;3.17;;;;;;;-4.02;100.00;100530.31;5049990;28;20203;-72
2023/12/04 04:05:51;;;;;;;7.63;2.73;;;;;;;-4.03;100.00;100531.09;5034321;28;20503;-70
2023/12/04 04:08:17;;;;;;;3.33;2.60;;;;;;;-4.08;100.00;100527.28;5034956;28;20293;-70
2023/12/04 04:10:44;;;;;;;9.47;4.10;;;;;;;-3.96;100.00;100523.03;5046191;28;20496;-70
2023/12/04 04:13:10;;;;;;;12.07;4.37;;;;;;;-3.91;100.00;100519.09;5055302;28;20202;-70
2023/12/04 04:15:36;;;;;;;20.70;10.00;;;;;;;-3.95;100.00;100515.38;5047691;28;20261;-70
2023/12/04 04:18:03;;;;;;;9.97;3.60;;;;;;;-3.83;100.00;100515.34;5029448;28;20467;-70
2023/12/04 04:20:29;;;;;;;6.63;4.00;;;;;;;-3.79;100.00;100512.19;5047284;28;20294;-70
2023/12/04 04:22:56;;;;;;;7.73;3.20;;;;;;;-3.66;100.00;100516.56;5048373;28;20202;-70
2023/12/04 04:25:23;;;;;;;8.97;3.93;;;;;;;-3.61;100.00;100528.13;5031574;28;20314;-70
2023/12/04 04:27:50;;;;;;;8.00;3.37;;;;;;;-3.68;100.00;100518.13;5047772;28;20300;-70
2023/12/04 04:30:17;;;;;;;5.23;3.27;;;;;;;-3.68;100.00;100513.84;5029483;28;20253;-70
2023/12/04 04:32:43;;;;;;;10.53;3.77;;;;;;;-3.64;100.00;100521.03;5050292;28;20207;-70
2023/12/04 04:35:10;;;;;;;6.57;3.60;;;;;;;-3.68;100.00;100519.03;5045476;28;20301;-70
2023/12/04 04:37:37;;;;;;;9.07;4.17;;;;;;;-3.59;100.00;100503.28;5029506;28;20203;-71
2023/12/04 04:40:03;;;;;;;8.80;4.10;;;;;;;-3.44;100.00;100501.75;5046621;28;20717;-70
2023/12/04 04:42:30;;;;;;;6.20;3.13;;;;;;;-3.45;100.00;100491.31;5042649;28;20457;-70
2023/12/04 04:44:56;;;;;;;9.23;3.00;;;;;;;-3.47;100.00;100504.13;5050378;28;20496;-71
2023/12/04 04:47:23;;;;;;;5.70;2.87;;;;;;;-3.47;100.00;100496.38;5055943;28;20220;-70
2023/12/04 04:49:49;;;;;;;7.73;3.33;;;;;;;-3.48;100.00;100490.31;5026986;28;20453;-70
2023/12/04 04:52:16;;;;;;;8.07;3.53;;;;;;;-3.53;100.00;100490.78;5051879;28;20293;-70
2023/12/04 04:54:42;;;;;;;10.13;4.13;;;;;;;-3.56;100.00;100494.03;5057603;28;20480;-70
2023/12/04 04:57:08;;;;;;;6.20;3.40;;;;;;;-3.53;100.00;100489.09;5044681;28;20697;-71
2023/12/04 04:59:35;;;;;;;19.73;9.43;;;;;;;-3.62;100.00;100498.75;5044196;28;20457;-70
2023/12/04 05:02:01;;;;;;;5.97;3.63;;;;;;;-3.65;100.00;100498.53;5034368;28;20888;-72
2023/12/04 05:04:30;;;;;;;5.30;3.63;;;;;;;-3.76;100.00;100501.16;5053659;28;20489;-70
2023/12/04 05:06:56;;;;;;;10.90;4.17;;;;;;;-3.73;100.00;100486.75;5044638;28;20502;-71
2023/12/04 05:09:23;;;;;;;9.97;3.70;;;;;;;-3.81;100.00;100495.66;5048469;28;20203;-70
2023/12/04 05:11:50;;;;;;;10.03;4.63;;;;;;;-3.85;100.00;100497.13;5046398;28;20210;-70
2023/12/04 05:14:16;;;;;;;21.43;10.37;;;;;;;-3.82;100.00;100497.34;5046804;28;20250;-71
2023/12/04 05:16:43;;;;;;;6.63;3.27;;;;;;;-3.70;100.00;100488.66;5044797;28;20464;-70
2023/12/04 05:19:09;;;;;;;6.53;4.03;;;;;;;-3.61;100.00;100481.53;5029220;28;20584;-70
2023/12/04 05:21:36;;;;;;;5.70;3.00;;;;;;;-3.65;100.00;100482.13;5051491;28;20280;-70
2023/12/04 05:24:02;;;;;;;20.63;10.13;;;;;;;-3.64;100.00;100461.53;5051077;28;20206;-71
2023/12/04 05:26:29;;;;;;;22.03;10.43;;;;;;;-3.55;100.00;100461.31;5031448;28;20198;-71
2023/12/04 05:28:55;;;;;;;6.47;3.60;;;;;;;-3.63;100.00;100447.78;5049953;28;20464;-70
2023/12/04 05:31:24;;;;;;;13.53;4.53;;;;;;;-3.60;100.00;100460.03;5030696;28;20252;-71
2023/12/04 05:33:51;;;;;;;14.43;4.33;;;;;;;-3.62;100.00;100453.88;5047808;28;20282;-70
2023/12/04 05:36:17;;;;;;;12.67;4.10;;;;;;;-3.70;100.00;100462.78;5050651;28;20483;-70
2023/12/04 05:38:43;;;;;;;20.20;9.77;;;;;;;-3.81;100.00;100454.28;5049217;28;20488;-71
2023/12/04 05:41:10;;;;;;;7.77;3.63;;;;;;;-3.76;100.00;100452.91;5034030;28;20822;-70
2023/12/04 05:43:36;;;;;;;9.20;3.77;;;;;;;-3.79;100.00;100448.41;5052210;28;20798;-70
2023/12/04 05:46:03;;;;;;;7.33;3.67;;;;;;;-3.82;100.00;100443.03;5033589;28;20225;-70
2023/12/04 05:48:29;;;;;;;7.67;3.77;;;;;;;-3.79;100.00;100439.75;5051687;28;20207;-70
2023/12/04 05:50:56;;;;;;;12.13;3.37;;;;;;;-3.76;100.00;100426.13;5045684;28;20884;-71
2023/12/04 05:53:22;;;;;;;9.87;4.17;;;;;;;-3.77;100.00;100420.06;5052243;28;20199;-70
2023/12/04 05:55:48;;;;;;;12.70;4.60;;;;;;;-3.81;100.00;100418.06;5033844;28;20643;-70
2023/12/04 05:58:15;;;;;;;22.07;9.97;;;;;;;-3.82;100.00;100429.19;5049508;28;20203;-71
2023/12/04 06:00:41;;;;;;;8.17;3.30;;;;;;;-3.73;100.00;100428.94;5051439;28;20199;-70
2023/12/04 06:03:08;;;;;;;9.43;3.90;;;;;;;-3.79;100.00;100440.66;5051375;28;20972;-71
2023/12/04 06:05:34;;;;;;;20.53;9.57;;;;;;;-3.86;100.00;100433.25;5056477;28;20829;-71
2023/12/04 06:08:01;;;;;;;5.87;2.77;;;;;;;-3.87;100.00;100446.97;5050694;28;20593;-71
2023/12/04 06:10:27;;;;;;;21.47;9.80;;;;;;;-3.89;100.00;100427.88;5051515;28;20199;-70
2023/12/04 06:12:53;;;;;;;25.03;10.30;;;;;;;-3.86;100.00;100427.19;5055839;28;20203;-70
2023/12/04 06:15:20;;;;;;;19.47;9.67;;;;;;;-3.66;100.00;100424.28;5054465;28;20495;-71
2023/12/04 06:17:47;;;;;;;20.13;9.83;;;;;;;-3.62;100.00;100408.19;5065504;28;20198;-71
2023/12/04 06:20:13;;;;;;;9.17;4.13;;;;;;;-3.52;100.00;100415.81;5066003;28;20445;-71
2023/12/04 06:22:40;;;;;;;8.67;4.30;;;;;;;-3.42;100.00;100412.16;5038495;28;20206;-71
2023/12/04 06:25:07;;;;;;;9.33;3.83;;;;;;;-3.31;100.00;100390.50;5065071;28;20480;-71
2023/12/04 06:27:34;;;;;;;12.93;4.40;;;;;;;-3.30;100.00;100397.47;5060524;28;20514;-72
2023/12/04 06:30:01;;;;;;;6.87;3.40;;;;;;;-3.20;100.00;100405.09;5077596;28;20458;-71
2023/12/04 06:32:28;;;;;;;6.83;3.13;;;;;;;-3.21;100.00;100404.94;5070056;28;20887;-73
2023/12/04 06:34:55;;;;;;;12.17;3.90;;;;;;;-3.27;100.00;100396.78;5074317;23;20503;-70
2023/12/04 06:37:25;;;;;;;5.67;2.67;;;;;;;-3.27;100.00;100396.78;5039494;28;20221;-71
2023/12/04 06:39:53;;;;;;;11.37;3.87;;;;;;;-3.17;100.00;100396.63;5042032;28;20206;-70
2023/12/04 06:42:20;;;;;;;21.37;10.23;;;;;;;-3.16;100.00;100385.47;5044564;28;20861;-71
2023/12/04 06:44:47;;;;;;;22.93;10.67;;;;;;;-3.18;100.00;100380.19;5043292;28;20881;-71
2023/12/04 06:47:17;;;;;;;8.30;3.47;;;;;;;-3.15;100.00;100382.09;5028708;28;20245;-71
2023/12/04 06:49:43;;;;;;;5.23;3.37;;;;;;;-3.20;100.00;100380.88;5046777;28;20437;-71
2023/12/04 06:52:10;;;;;;;10.50;3.67;;;;;;;-3.26;100.00;100368.38;5039463;28;20443;-71
2023/12/04 06:54:36;;;;;;;11.53;4.00;;;;;;;-3.24;100.00;100371.06;5045855;28;20647;-71
2023/12/04 06:57:03;;;;;;;10.27;3.63;;;;;;;-3.20;100.00;100366.25;5044814;28;20788;-71
2023/12/04 06:59:29;;;;;;;21.83;10.97;;;;;;;-3.06;100.00;100349.03;5038382;28;20204;-76
2023/12/04 07:01:56;;;;;;;22.57;10.40;;;;;;;-3.01;100.00;100339.84;5046851;28;20226;-74
2023/12/04 07:04:22;;;;;;;8.50;3.57;;;;;;;-3.01;100.00;100333.78;5045031;28;20229;-75
2023/12/04 07:06:49;;;;;;;6.20;3.67;;;;;;;-3.02;100.00;100358.78;5049588;28;20211;-73
2023/12/04 07:09:16;;;;;;;21.20;9.80;;;;;;;-3.02;100.00;100347.53;5045577;28;20288;-71
2023/12/04 07:11:43;;;;;;;18.20;9.33;;;;;;;-2.94;100.00;100343.75;5027413;28;20461;-70
2023/12/04 07:14:10;;;;;;;23.13;10.03;;;;;;;-2.90;100.00;100345.72;5046544;28;20203;-71
2023/12/04 07:16:43;;;;;;;20.77;9.73;;;;;;;-2.89;100.00;100340.66;5033531;28;20213;-71
2023/12/04 07:19:10;;;;;;;18.63;9.43;;;;;;;-2.80;100.00;100337.78;5050634;28;20227;-71
2023/12/04 07:21:38;;;;;;;18.50;9.27;;;;;;;-2.78;100.00;100340.47;5050654;28;20215;-73
2023/12/04 07:24:05;;;;;;;18.53;8.93;;;;;;;-2.73;100.00;100339.97;5050765;28;20207;-71
2023/12/04 07:26:33;;;;;;;9.07;3.33;;;;;;;-2.66;100.00;100334.38;5050009;28;20765;-71
2023/12/04 07:29:00;;;;;;;10.43;4.43;;;;;;;-2.63;100.00;100334.56;5050763;28;20357;-71
2023/12/04 07:31:27;;;;;;;7.43;3.60;;;;;;;-2.53;100.00;100333.47;5050544;28;20210;-73
2023/12/04 07:33:54;;;;;;;21.40;9.00;;;;;;;-2.42;100.00;100318.59;5050721;28;20214;-72
2023/12/04 07:36:21;;;;;;;21.33;9.43;;;;;;;-2.45;100.00;100329.66;5050649;28;20246;-71
2023/12/04 07:38:49;;;;;;;19.57;10.00;;;;;;;-2.40;100.00;100329.94;5050493;28;20618;-73
2023/12/04 07:41:16;;;;;;;8.67;3.90;;;;;;;-2.36;100.00;100325.06;5046956;28;20214;-71
2023/12/04 07:43:43;;;;;;;9.00;4.23;;;;;;;-2.30;100.00;100327.16;5050423;28;20215;-71
2023/12/04 07:46:11;;;;;;;10.53;5.03;;;;;;;-2.32;100.00;100328.75;5048439;28;20636;-71
2023/12/04 07:48:37;;;;;;;9.13;4.00;;;;;;;-2.19;100.00;100328.72;5032922;28;20412;-71
2023/12/04 07:51:04;;;;;;;18.63;9.30;;;;;;;-2.16;100.00;100331.50;5049534;28;20610;-71
2023/12/04 07:53:31;;;;;;;20.03;9.50;;;;;;;-2.07;100.00;100337.25;5050569;28;20285;-71
2023/12/04 07:56:03;;;;;;;15.23;4.70;;;;;;;-2.06;100.00;100327.78;5049927;28;20298;-71
2023/12/04 07:58:31;;;;;;;11.23;4.90;;;;;;;-2.04;100.00;100334.84;5033035;28;20205;-72
2023/12/04 08:00:58;;;;;;;22.97;10.10;;;;;;;-1.90;100.00;100322.75;5049879;28;20213;-71
2023/12/04 08:03:24;;;;;;;8.50;3.50;;;;;;;-1.80;100.00;100326.78;5050239;28;20314;-71
2023/12/04 08:05:51;;;;;;;10.53;4.43;;;;;;;-1.79;100.00;100316.50;5047521;28;20364;-71
2023/12/04 08:08:18;;;;;;;3.93;2.50;;;;;;;-1.65;100.00;100322.53;5047868;28;20267;-71
2023/12/04 08:10:45;;;;;;;7.37;4.03;;;;;;;-1.67;100.00;100316.34;5049447;28;20681;-71
2023/12/04 08:13:11;;;;;;;18.33;9.50;;;;;;;-1.58;100.00;100312.63;5049429;28;20203;-71
2023/12/04 08:15:37;;;;;;;7.50;3.80;;;;;;;-1.53;100.00;100314.59;5046112;28;20214;-73
2023/12/04 08:18:04;;;;;;;9.40;4.63;;;;;;;-1.46;100.00;100315.03;5029011;28;20298;-71
2023/12/04 08:20:30;;;;;;;10.93;4.30;;;;;;;-1.45;100.00;100302.97;5043754;28;20245;-72
2023/12/04 08:23:06;;;;;;;9.20;4.90;;;;;;;-1.39;100.00;100304.22;5049938;28;20206;-72
2023/12/04 08:25:32;;;;;;;20.10;9.80;;;;;;;-1.34;100.00;100294.97;5046159;28;20255;-71
2023/12/04 08:27:59;;;;;;;12.93;4.90;;;;;;;-1.23;100.00;100286.91;5027746;28;20231;-72
2023/12/04 08:30:27;;;;;;;11.70;5.50;;;;;;;-1.20;100.00;100287.09;5046254;28;20304;-72
2023/12/04 08:32:54;;;;;;;5.80;3.57;;;;;;;-1.07;100.00;100287.91;5045451;28;20208;-71
2023/12/04 08:35:20;;;;;;;9.97;4.33;;;;;;;-0.96;100.00;100280.72;5047869;28;20313;-72
2023/12/04 08:37:47;;;;;;;12.17;4.53;;;;;;;-0.95;100.00;100275.59;5048596;28;20235;-71
2023/12/04 08:40:13;;;;;;;10.53;4.60;;;;;;;-0.88;100.00;100268.16;5047679;28;20545;-72
2023/12/04 08:42:40;;;;;;;13.80;4.97;;;;;;;-0.81;100.00;100262.47;5049249;28;20208;-72
2023/12/04 08:45:09;;;;;;;11.03;4.53;;;;;;;-0.73;100.00;100264.72;5048834;28;20246;-72
2023/12/04 08:47:35;;;;;;;12.07;4.83;;;;;;;-0.67;100.00;100254.66;5048965;28;20584;-74
2023/12/04 08:50:02;;;;;;;12.23;4.90;;;;;;;-0.59;100.00;100260.28;5030926;28;20292;-74
2023/12/04 08:52:28;;;;;;;9.50;5.57;;;;;;;-0.50;100.00;100249.47;5048785;28;20229;-74
2023/12/04 08:54:55;;;;;;;14.97;5.53;;;;;;;-0.49;100.00;100240.88;5047053;28;20410;-74
2023/12/04 08:57:21;;;;;;;15.60;4.63;;;;;;;-0.41;100.00;100242.19;5031060;28;20209;-74
2023/12/04 08:59:47;;;;;;;13.17;5.00;;;;;;;-0.39;100.00;100240.59;5031016;28;20743;-74
2023/12/04 09:02:14;;;;;;;12.53;5.60;;;;;;;-0.30;100.00;100240.19;5048830;28;20202;-75
2023/12/04 09:04:41;;;;;;;14.30;5.30;;;;;;;-0.17;100.00;100245.22;5049720;28;20254;-75
2023/12/04 09:07:08;;;;;;;13.83;5.43;;;;;;;-0.18;100.00;100254.72;5031316;28;20227;-75
2023/12/04 09:09:37;;;;;;;14.00;5.17;;;;;;;-0.13;100.00;100250.66;5028839;28;20203;-75
2023/12/04 09:12:04;;;;;;;10.90;4.20;;;;;;;-0.20;100.00;100250.25;5047419;28;20202;-75
2023/12/04 09:14:30;;;;;;;12.80;5.37;;;;;;;-0.19;100.00;100249.44;5047498;28;20222;-75
2023/12/04 09:16:57;;;;;;;11.30;5.33;;;;;;;-0.26;100.00;100252.53;5048967;28;20250;-75
2023/12/04 09:19:23;;;;;;;21.50;5.13;;;;;;;-0.42;100.00;100248.19;5048709;28;20634;-75
2023/12/04 09:21:50;;;;;;;13.60;5.27;;;;;;;-0.54;100.00;100251.03;5048733;28;20666;-75
2023/12/04 09:24:33;;;;;;;6.90;4.03;;;;;;;-0.64;100.00;100253.94;5047559;28;20303;-75
2023/12/04 09:27:00;;;;;;;11.93;4.57;;;;;;;-0.65;100.00;100255.66;5029332;28;20220;-75
2023/12/04 09:29:26;;;;;;;13.97;5.20;;;;;;;-0.64;100.00;100256.53;5045500;28;20195;-74
2023/12/04 09:31:53;;;;;;;14.70;5.07;;;;;;;-0.68;100.00;100259.78;5046777;28;20204;-75
2023/12/04 09:34:20;;;;;;;8.07;4.53;;;;;;;-0.73;100.00;100258.63;5049145;28;20202;-74
2023/12/04 09:36:48;;;;;;;12.83;5.23;;;;;;;-0.77;100.00;100267.06;5048091;28;20280;-74
2023/12/04 09:39:17;;;;;;;11.43;5.43;;;;;;;-0.79;100.00;100272.19;5043029;28;20293;-75
2023/12/04 09:41:44;;;;;;;9.83;4.57;;;;;;;-0.81;100.00;100265.97;5031172;28;20213;-74
2023/12/04 09:44:11;;;;;;;9.90;4.80;;;;;;;-0.83;100.00;100261.50;5027419;28;20209;-74
2023/12/04 09:46:38;;;;;;;14.40;4.77;;;;;;;-0.86;100.00;100270.03;5048771;28;20216;-75
2023/12/04 09:49:04;;;;;;;13.53;5.30;;;;;;;-0.79;100.00;100271.28;5048679;28;20237;-74
2023/12/04 09:51:31;;;;;;;8.00;4.73;;;;;;;-0.78;100.00;100257.50;5049006;28;20205;-74
2023/12/04 09:54:03;;;;;;;15.07;8.83;;;;;;;-0.82;100.00;100264.19;5048157;28;20233;-74
2023/12/04 09:56:32;;;;;;;13.23;5.07;;;;;;;-0.76;100.00;100254.16;5048213;28;20218;-74
2023/12/04 09:59:00;;;;;;;11.47;3.77;;;;;;;-0.68;100.00;100245.06;5049003;28;20217;-74
2023/12/04 10:01:30;;;;;;;8.77;4.60;;;;;;;-0.57;100.00;100236.97;5049071;28;20209;-75
2023/12/04 10:03:58;;;;;;;12.23;4.40;;;;;;;-0.49;100.00;100222.66;5031144;28;20206;-74
2023/12/04 10:06:28;;;;;;;12.07;4.17;;;;;;;-0.54;100.00;100216.31;5029924;28;20305;-75
2023/12/04 10:08:58;;;;;;;6.87;4.10;;;;;;;-0.47;100.00;100216.72;5034151;28;20624;-74
2023/12/04 10:11:26;;;;;;;11.40;5.30;;;;;;;-0.40;100.00;100221.47;5052051;28;20199;-75
2023/12/04 10:13:54;;;;;;;6.10;3.80;;;;;;;-0.45;100.00;100215.09;5052634;28;20238;-75
2023/12/04 10:16:36;;;;;;;8.30;4.53;;;;;;;-0.45;100.00;100219.41;5050288;28;20280;-75
2023/12/04 10:19:17;;;;;;;9.87;4.20;;;;;;;-0.32;100.00;100224.50;5052009;28;20244;-75
2023/12/04 10:21:49;;;;;;;6.63;3.10;;;;;;;-0.21;100.00;100206.84;5052938;28;20209;-75
2023/12/04 10:24:32;;;;;;;9.67;4.33;;;;;;;-0.09;100.00;100210.97;5052547;28;20204;-76
2023/12/04 10:26:59;;;;;;;10.10;4.90;;;;;;;-0.09;100.00;100225.69;5051055;28;20779;-76
2023/12/04 10:29:29;;;;;;;13.17;5.40;;;;;;;0.03;100.00;100222.84;5034198;28;20196;-76
2023/12/04 10:31:55;;;;;;;9.57;5.00;;;;;;;0.16;100.00;100213.16;5048976;28;20197;-75
2023/12/04 10:34:25;;;;;;;12.23;4.83;;;;;;;0.31;100.00;100205.22;5051335;28;20289;-76
2023/12/04 10:36:53;;;;;;;10.40;5.10;;;;;;;0.41;100.00;100204.00;5034603;28;20201;-76
2023/12/04 10:39:20;;;;;;;15.20;6.10;;;;;;;0.39;100.00;100201.28;5049840;28;20207;-76
2023/12/04 10:41:59;;;;;;;10.17;4.60;;;;;;;0.55;100.00;100202.97;5052553;28;20286;-76
2023/12/04 10:44:26;;;;;;;7.80;5.27;;;;;;;0.43;100.00;100198.06;5048840;28;20198;-76
2023/12/04 10:46:58;;;;;;;10.90;5.30;;;;;;;0.42;100.00;100197.97;5051918;28;20217;-76
2023/12/04 10:49:28;;;;;;;10.70;5.37;;;;;;;0.47;100.00;100186.97;5048416;28;20288;-76
2023/12/04 10:51:57;;;;;;;10.90;4.77;;;;;;;0.46;100.00;100190.38;5051869;28;20239;-76
2023/12/04 10:54:23;;;;;;;13.33;5.17;;;;;;;0.45;100.00;100180.78;5051311;28;20234;-76
2023/12/04 10:56:52;;;;;;;10.37;4.90;;;;;;;0.36;100.00;100175.09;5033999;28;20688;-75
2023/12/04 10:59:31;;;;;;;15.73;6.10;;;;;;;0.24;100.00;100171.88;5033974;28;20234;-75
2023/12/04 11:02:02;;;;;;;17.67;5.07;;;;;;;0.18;100.00;100168.97;5050492;28;20200;-75
2023/12/04 11:04:32;;;;;;;16.33;5.00;;;;;;;-0.01;100.00;100164.50;5033903;28;20739;-75
2023/12/04 11:07:01;;;;;;;9.67;5.33;;;;;;;-0.22;100.00;100156.50;5051454;28;20221;-75
2023/12/04 11:09:31;;;;;;;11.33;5.20;;;;;;;-0.35;100.00;100149.78;5046007;28;20197;-76
2023/12/04 11:12:02;;;;;;;11.90;4.93;;;;;;;-0.37;100.00;100142.69;5049750;28;20285;-76